sensor_id;sensor_type;location;lat;lon;timestamp;pressure;altitude;pressure_sealevel;temperature;humidity
66945;BME280;53853;51.982;5.928;2023-04-23T00:01:21;100714.06;;;10.26;86.37
66945;BME280;53853;51.982;5.928;2023-04-23T00:03:56;100712.25;;;10.27;86.65
66945;BME280;53853;51.982;5.928;2023-04-23T00:06:27;100722.91;;;10.27;86.77
66945;BME280;53853;51.982;5.928;2023-04-23T00:08:59;100718.53;;;10.26;86.46
66945;BME280;53853;51.982;5.928;2023-04-23T00:11:33;100715.06;;;10.25;86.46
66945;BME280;53853;51.982;5.928;2023-04-23T00:14:03;100714.22;;;10.25;86.18
66945;BME280;53853;51.982;5.928;2023-04-23T00:16:34;100712.53;;;10.24;86.38
66945;BME280;53853;51.982;5.928;2023-04-23T00:19:03;100713.53;;;10.23;86.13
66945;BME280;53853;51.982;5.928;2023-04-23T00:21:33;100711.88;;;10.22;85.89
66945;BME280;53853;51.982;5.928;2023-04-23T00:24:03;100702.72;;;10.24;86.66
66945;BME280;53853;51.982;5.928;2023-04-23T00:26:36;100706.53;;;10.22;86.47
66945;BME280;53853;51.982;5.928;2023-04-23T00:29:06;100692.50;;;10.20;86.01
66945;BME280;53853;51.982;5.928;2023-04-23T00:31:36;100697.84;;;10.20;86.01
66945;BME280;53853;51.982;5.928;2023-04-23T00:34:06;100699.00;;;10.17;86.11
66945;BME280;53853;51.982;5.928;2023-04-23T00:36:35;100693.00;;;10.15;86.30
66945;BME280;53853;51.982;5.928;2023-04-23T00:39:05;100698.47;;;10.13;86.03
66945;BME280;53853;51.982;5.928;2023-04-23T00:41:40;100692.72;;;10.08;85.67
66945;BME280;53853;51.982;5.928;2023-04-23T00:44:10;100690.38;;;10.05;85.29
66945;BME280;53853;51.982;5.928;2023-04-23T00:46:40;100690.81;;;10.01;85.17
66945;BME280;53853;51.982;5.928;2023-04-23T00:49:10;100684.13;;;9.96;85.06
66945;BME280;53853;51.982;5.928;2023-04-23T00:51:42;100678.44;;;9.91;85.06
66945;BME280;53853;51.982;5.928;2023-04-23T00:54:12;100688.81;;;9.85;85.42
66945;BME280;53853;51.982;5.928;2023-04-23T00:56:44;100685.47;;;9.83;85.75
66945;BME280;53853;51.982;5.928;2023-04-23T00:59:14;100677.94;;;9.78;85.69
66945;BME280;53853;51.982;5.928;2023-04-23T01:01:44;100676.72;;;9.72;85.65
66945;BME280;53853;51.982;5.928;2023-04-23T01:04:15;100674.34;;;9.69;85.77
66945;BME280;53853;51.982;5.928;2023-04-23T01:06:46;100680.94;;;9.65;85.71
66945;BME280;53853;51.982;5.928;2023-04-23T01:09:17;100665.41;;;9.60;86.04
66945;BME280;53853;51.982;5.928;2023-04-23T01:11:51;100668.38;;;9.57;86.25
66945;BME280;53853;51.982;5.928;2023-04-23T01:14:21;100667.84;;;9.54;86.26
66945;BME280;53853;51.982;5.928;2023-04-23T01:16:51;100669.97;;;9.50;86.28
66945;BME280;53853;51.982;5.928;2023-04-23T01:19:22;100662.13;;;9.49;86.29
66945;BME280;53853;51.982;5.928;2023-04-23T01:21:52;100668.41;;;9.48;86.19
66945;BME280;53853;51.982;5.928;2023-04-23T01:24:24;100663.41;;;9.45;86.49
66945;BME280;53853;51.982;5.928;2023-04-23T01:26:54;100660.72;;;9.45;86.29
66945;BME280;53853;51.982;5.928;2023-04-23T01:29:25;100655.41;;;9.45;86.38
66945;BME280;53853;51.982;5.928;2023-04-23T01:31:55;100650.09;;;9.45;86.42
66945;BME280;53853;51.982;5.928;2023-04-23T01:34:26;100657.94;;;9.46;86.46
66945;BME280;53853;51.982;5.928;2023-04-23T01:36:56;100642.50;;;9.50;86.83
66945;BME280;53853;51.982;5.928;2023-04-23T01:39:29;100640.25;;;9.55;87.00
66945;BME280;53853;51.982;5.928;2023-04-23T01:41:59;100642.63;;;9.58;87.12
66945;BME280;53853;51.982;5.928;2023-04-23T01:44:30;100636.69;;;9.64;87.30
66945;BME280;53853;51.982;5.928;2023-04-23T01:46:59;100639.19;;;9.66;87.04
66945;BME280;53853;51.982;5.928;2023-04-23T01:49:32;100636.38;;;9.67;87.03
66945;BME280;53853;51.982;5.928;2023-04-23T01:52:02;100631.78;;;9.69;87.09
66945;BME280;53853;51.982;5.928;2023-04-23T01:54:34;100635.56;;;9.67;86.82
66945;BME280;53853;51.982;5.928;2023-04-23T01:57:04;100630.38;;;9.65;86.68
66945;BME280;53853;51.982;5.928;2023-04-23T01:59:34;100628.69;;;9.64;86.82
66945;BME280;53853;51.982;5.928;2023-04-23T02:02:04;100631.66;;;9.61;86.81
66945;BME280;53853;51.982;5.928;2023-04-23T02:04:38;100636.28;;;9.59;86.83
66945;BME280;53853;51.982;5.928;2023-04-23T02:07:09;100629.47;;;9.56;86.96
66945;BME280;53853;51.982;5.928;2023-04-23T02:09:42;100633.94;;;9.56;86.86
66945;BME280;53853;51.982;5.928;2023-04-23T02:12:12;100631.41;;;9.54;86.64
66945;BME280;53853;51.982;5.928;2023-04-23T02:14:42;100613.94;;;9.52;86.57
66945;BME280;53853;51.982;5.928;2023-04-23T02:17:11;100620.41;;;9.49;86.39
66945;BME280;53853;51.982;5.928;2023-04-23T02:19:41;100629.19;;;9.50;86.75
66945;BME280;53853;51.982;5.928;2023-04-23T02:22:11;100620.78;;;9.54;86.87
66945;BME280;53853;51.982;5.928;2023-04-23T02:24:44;100624.00;;;9.58;87.25
66945;BME280;53853;51.982;5.928;2023-04-23T02:27:14;100625.34;;;9.62;87.22
66945;BME280;53853;51.982;5.928;2023-04-23T02:29:44;100616.09;;;9.66;87.24
66945;BME280;53853;51.982;5.928;2023-04-23T02:32:14;100630.78;;;9.70;87.47
66945;BME280;53853;51.982;5.928;2023-04-23T02:34:44;100627.81;;;9.73;87.66
66945;BME280;53853;51.982;5.928;2023-04-23T02:37:14;100623.88;;;9.77;87.65
66945;BME280;53853;51.982;5.928;2023-04-23T02:39:46;100623.72;;;9.79;87.81
66945;BME280;53853;51.982;5.928;2023-04-23T02:42:16;100621.06;;;9.79;87.16
66945;BME280;53853;51.982;5.928;2023-04-23T02:44:46;100618.56;;;9.77;87.15
66945;BME280;53853;51.982;5.928;2023-04-23T02:47:16;100613.38;;;9.76;86.88
66945;BME280;53853;51.982;5.928;2023-04-23T02:49:45;100618.56;;;9.77;86.92
66945;BME280;53853;51.982;5.928;2023-04-23T02:52:15;100609.56;;;9.78;86.74
66945;BME280;53853;51.982;5.928;2023-04-23T02:54:48;100617.72;;;9.77;86.80
66945;BME280;53853;51.982;5.928;2023-04-23T02:57:18;100616.88;;;9.76;86.75
66945;BME280;53853;51.982;5.928;2023-04-23T02:59:48;100613.22;;;9.77;86.79
66945;BME280;53853;51.982;5.928;2023-04-23T03:02:22;100605.25;;;9.77;86.60
66945;BME280;53853;51.982;5.928;2023-04-23T03:04:52;100595.28;;;9.79;86.89
66945;BME280;53853;51.982;5.928;2023-04-23T03:07:22;100603.94;;;9.82;86.69
66945;BME280;53853;51.982;5.928;2023-04-23T03:09:54;100601.44;;;9.80;86.83
66945;BME280;53853;51.982;5.928;2023-04-23T03:12:25;100599.78;;;9.79;86.73
66945;BME280;53853;51.982;5.928;2023-04-23T03:14:55;100598.25;;;9.76;86.87
66945;BME280;53853;51.982;5.928;2023-04-23T03:17:27;100606.38;;;9.75;86.90
66945;BME280;53853;51.982;5.928;2023-04-23T03:19:57;100593.38;;;9.72;86.61
66945;BME280;53853;51.982;5.928;2023-04-23T03:22:27;100597.19;;;9.69;86.66
66945;BME280;53853;51.982;5.928;2023-04-23T03:24:59;100606.97;;;9.69;86.58
66945;BME280;53853;51.982;5.928;2023-04-23T03:27:29;100605.75;;;9.63;86.66
66945;BME280;53853;51.982;5.928;2023-04-23T03:29:59;100604.22;;;9.60;86.79
66945;BME280;53853;51.982;5.928;2023-04-23T03:32:29;100602.72;;;9.58;86.51
66945;BME280;53853;51.982;5.928;2023-04-23T03:34:59;100604.81;;;9.54;86.32
66945;BME280;53853;51.982;5.928;2023-04-23T03:37:29;100596.31;;;9.51;86.36
66945;BME280;53853;51.982;5.928;2023-04-23T03:40:01;100602.91;;;9.47;86.13
66945;BME280;53853;51.982;5.928;2023-04-23T03:42:35;100597.19;;;9.41;86.20
66945;BME280;53853;51.982;5.928;2023-04-23T03:45:07;100594.69;;;9.40;86.21
66945;BME280;53853;51.982;5.928;2023-04-23T03:47:37;100587.00;;;9.37;85.91
66945;BME280;53853;51.982;5.928;2023-04-23T03:50:08;100589.81;;;9.35;86.10
66945;BME280;53853;51.982;5.928;2023-04-23T03:52:40;100594.81;;;9.38;86.79
66945;BME280;53853;51.982;5.928;2023-04-23T03:55:18;100590.19;;;9.40;87.09
66945;BME280;53853;51.982;5.928;2023-04-23T03:57:48;100589.22;;;9.41;87.29
66945;BME280;53853;51.982;5.928;2023-04-23T04:00:21;100593.41;;;9.44;87.43
66945;BME280;53853;51.982;5.928;2023-04-23T04:02:51;100582.78;;;9.44;87.35
66945;BME280;53853;51.982;5.928;2023-04-23T04:05:22;100576.59;;;9.43;87.58
66945;BME280;53853;51.982;5.928;2023-04-23T04:07:54;100570.44;;;9.43;87.34
66945;BME280;53853;51.982;5.928;2023-04-23T04:10:28;100578.44;;;9.43;87.64
66945;BME280;53853;51.982;5.928;2023-04-23T04:12:58;100573.09;;;9.43;87.40
66945;BME280;53853;51.982;5.928;2023-04-23T04:15:28;100574.78;;;9.44;87.33
66945;BME280;53853;51.982;5.928;2023-04-23T04:17:58;100568.63;;;9.43;87.23
66945;BME280;53853;51.982;5.928;2023-04-23T04:20:29;100592.41;;;9.45;87.29
66945;BME280;53853;51.982;5.928;2023-04-23T04:22:58;100587.09;;;9.45;87.17
66945;BME280;53853;51.982;5.928;2023-04-23T04:25:31;100577.00;;;9.49;87.11
66945;BME280;53853;51.982;5.928;2023-04-23T04:28:05;100583.16;;;9.49;87.03
66945;BME280;53853;51.982;5.928;2023-04-23T04:30:37;100583.69;;;9.53;87.06
66945;BME280;53853;51.982;5.928;2023-04-23T04:33:08;100580.06;;;9.54;86.78
66945;BME280;53853;51.982;5.928;2023-04-23T04:35:38;100583.38;;;9.56;86.84
66945;BME280;53853;51.982;5.928;2023-04-23T04:38:08;100587.59;;;9.58;87.14
66945;BME280;53853;51.982;5.928;2023-04-23T04:40:41;100586.75;;;9.58;86.95
66945;BME280;53853;51.982;5.928;2023-04-23T04:43:11;100597.41;;;9.58;87.01
66945;BME280;53853;51.982;5.928;2023-04-23T04:45:42;100591.91;;;9.59;87.47
66945;BME280;53853;51.982;5.928;2023-04-23T04:48:12;100585.31;;;9.64;87.81
66945;BME280;53853;51.982;5.928;2023-04-23T04:50:42;100589.19;;;9.69;87.82
66945;BME280;53853;51.982;5.928;2023-04-23T04:53:12;100580.47;;;9.77;87.94
66945;BME280;53853;51.982;5.928;2023-04-23T04:55:44;100591.03;;;9.87;88.58
66945;BME280;53853;51.982;5.928;2023-04-23T04:58:15;100583.13;;;9.95;89.11
66945;BME280;53853;51.982;5.928;2023-04-23T05:00:44;100580.84;;;10.00;89.25
66945;BME280;53853;51.982;5.928;2023-04-23T05:03:16;100587.09;;;10.09;89.56
66945;BME280;53853;51.982;5.928;2023-04-23T05:05:47;100581.97;;;10.15;89.92
66945;BME280;53853;51.982;5.928;2023-04-23T05:08:17;100583.03;;;10.23;89.90
66945;BME280;53853;51.982;5.928;2023-04-23T05:10:50;100589.56;;;10.28;89.44
66945;BME280;53853;51.982;5.928;2023-04-23T05:13:20;100578.19;;;10.36;89.61
66945;BME280;53853;51.982;5.928;2023-04-23T05:15:50;100581.88;;;10.43;89.25
66945;BME280;53853;51.982;5.928;2023-04-23T05:18:20;100581.56;;;10.46;88.73
66945;BME280;53853;51.982;5.928;2023-04-23T05:20:49;100582.94;;;10.50;88.70
66945;BME280;53853;51.982;5.928;2023-04-23T05:23:19;100579.97;;;10.54;88.47
66945;BME280;53853;51.982;5.928;2023-04-23T05:25:52;100586.66;;;10.58;88.80
66945;BME280;53853;51.982;5.928;2023-04-23T05:28:23;100581.84;;;10.61;88.62
66945;BME280;53853;51.982;5.928;2023-04-23T05:30:52;100572.69;;;10.64;88.96
66945;BME280;53853;51.982;5.928;2023-04-23T05:33:22;100576.88;;;10.66;89.00
66945;BME280;53853;51.982;5.928;2023-04-23T05:35:52;100572.22;;;10.68;88.85
66945;BME280;53853;51.982;5.928;2023-04-23T05:38:23;100570.78;;;10.74;88.61
66945;BME280;53853;51.982;5.928;2023-04-23T05:40:55;100578.63;;;10.76;88.24
66945;BME280;53853;51.982;5.928;2023-04-23T05:43:25;100596.41;;;10.75;87.90
66945;BME280;53853;51.982;5.928;2023-04-23T05:45:55;100595.13;;;10.79;88.50
66945;BME280;53853;51.982;5.928;2023-04-23T05:48:25;100586.00;;;10.82;88.37
66945;BME280;53853;51.982;5.928;2023-04-23T05:50:55;100579.81;;;10.81;87.68
66945;BME280;53853;51.982;5.928;2023-04-23T05:53:25;100587.78;;;10.81;87.39
66945;BME280;53853;51.982;5.928;2023-04-23T05:55:57;100587.16;;;10.87;87.95
66945;BME280;53853;51.982;5.928;2023-04-23T05:58:27;100580.22;;;10.95;88.25
66945;BME280;53853;51.982;5.928;2023-04-23T06:00:57;100592.94;;;11.01;88.95
66945;BME280;53853;51.982;5.928;2023-04-23T06:03:27;100590.44;;;11.08;88.81
66945;BME280;53853;51.982;5.928;2023-04-23T06:05:57;100585.47;;;11.13;88.60
66945;BME280;53853;51.982;5.928;2023-04-23T06:08:27;100579.50;;;11.19;88.37
66945;BME280;53853;51.982;5.928;2023-04-23T06:10:59;100579.03;;;11.23;88.10
66945;BME280;53853;51.982;5.928;2023-04-23T06:13:29;100581.22;;;11.28;88.13
66945;BME280;53853;51.982;5.928;2023-04-23T06:15:59;100580.03;;;11.31;87.72
66945;BME280;53853;51.982;5.928;2023-04-23T06:18:29;100567.06;;;11.36;87.72
66945;BME280;53853;51.982;5.928;2023-04-23T06:20:59;100561.09;;;11.42;87.60
66945;BME280;53853;51.982;5.928;2023-04-23T06:23:30;100569.59;;;11.46;87.76
66945;BME280;53853;51.982;5.928;2023-04-23T06:26:02;100565.41;;;11.51;87.97
66945;BME280;53853;51.982;5.928;2023-04-23T06:28:32;100571.28;;;11.55;87.48
66945;BME280;53853;51.982;5.928;2023-04-23T06:31:23;100569.78;;;11.60;88.37
66945;BME280;53853;51.982;5.928;2023-04-23T06:33:53;100568.16;;;11.68;88.94
66945;BME280;53853;51.982;5.928;2023-04-23T06:36:22;100565.66;;;11.74;88.67
66945;BME280;53853;51.982;5.928;2023-04-23T06:38:52;100557.00;;;11.81;89.23
66945;BME280;53853;51.982;5.928;2023-04-23T06:41:25;100559.81;;;11.87;89.63
66945;BME280;53853;51.982;5.928;2023-04-23T06:44:12;100566.22;;;11.94;90.04
66945;BME280;53853;51.982;5.928;2023-04-23T06:46:51;100558.22;;;12.03;90.20
66945;BME280;53853;51.982;5.928;2023-04-23T06:49:21;100557.56;;;12.09;90.36
66945;BME280;53853;51.982;5.928;2023-04-23T06:51:51;100553.19;;;12.16;90.54
66945;BME280;53853;51.982;5.928;2023-04-23T06:54:21;100548.19;;;12.21;90.39
66945;BME280;53853;51.982;5.928;2023-04-23T06:56:53;100546.69;;;12.27;90.49
66945;BME280;53853;51.982;5.928;2023-04-23T06:59:23;100542.50;;;12.32;90.53
66945;BME280;53853;51.982;5.928;2023-04-23T07:01:58;100546.16;;;12.40;90.39
66945;BME280;53853;51.982;5.928;2023-04-23T07:04:28;100543.63;;;12.46;90.57
66945;BME280;53853;51.982;5.928;2023-04-23T07:06:58;100542.13;;;12.52;90.18
66945;BME280;53853;51.982;5.928;2023-04-23T07:09:28;100538.13;;;12.56;89.74
66945;BME280;53853;51.982;5.928;2023-04-23T07:12:01;100537.59;;;12.61;88.89
66945;BME280;53853;51.982;5.928;2023-04-23T07:14:31;100535.09;;;12.67;88.78
66945;BME280;53853;51.982;5.928;2023-04-23T07:17:01;100532.09;;;12.71;87.91
66945;BME280;53853;51.982;5.928;2023-04-23T07:19:31;100522.53;;;12.76;87.92
66945;BME280;53853;51.982;5.928;2023-04-23T07:22:01;100526.38;;;12.82;87.49
66945;BME280;53853;51.982;5.928;2023-04-23T07:24:31;100522.31;;;12.86;87.47
66945;BME280;53853;51.982;5.928;2023-04-23T07:27:03;100514.63;;;12.91;86.14
66945;BME280;53853;51.982;5.928;2023-04-23T07:29:33;100522.16;;;12.96;86.52
66945;BME280;53853;51.982;5.928;2023-04-23T07:32:03;100525.94;;;13.01;86.45
66945;BME280;53853;51.982;5.928;2023-04-23T07:34:33;100524.59;;;13.05;86.06
66945;BME280;53853;51.982;5.928;2023-04-23T07:37:05;100521.25;;;13.12;86.72
66945;BME280;53853;51.982;5.928;2023-04-23T07:39:35;100518.56;;;13.12;82.20
66945;BME280;53853;51.982;5.928;2023-04-23T07:42:07;100519.69;;;13.17;82.93
66945;BME280;53853;51.982;5.928;2023-04-23T07:44:37;100521.84;;;13.22;82.35
66945;BME280;53853;51.982;5.928;2023-04-23T07:47:07;100521.50;;;13.25;82.26
66945;BME280;53853;51.982;5.928;2023-04-23T07:49:37;100526.50;;;13.28;81.05
66945;BME280;53853;51.982;5.928;2023-04-23T07:52:07;100527.47;;;13.35;81.30
66945;BME280;53853;51.982;5.928;2023-04-23T07:54:37;100519.78;;;13.40;82.56
66945;BME280;53853;51.982;5.928;2023-04-23T07:57:09;100511.41;;;13.44;82.86
66945;BME280;53853;51.982;5.928;2023-04-23T07:59:39;100510.53;;;13.51;83.44
66945;BME280;53853;51.982;5.928;2023-04-23T08:02:09;100512.63;;;13.56;83.94
66945;BME280;53853;51.982;5.928;2023-04-23T08:04:39;100508.25;;;13.63;82.87
66945;BME280;53853;51.982;5.928;2023-04-23T08:07:09;100501.19;;;13.70;84.28
66945;BME280;53853;51.982;5.928;2023-04-23T08:09:38;100502.28;;;13.76;84.50
66945;BME280;53853;51.982;5.928;2023-04-23T08:12:11;100511.47;;;13.82;83.44
66945;BME280;53853;51.982;5.928;2023-04-23T08:14:44;100501.22;;;13.85;83.14
66945;BME280;53853;51.982;5.928;2023-04-23T08:17:16;100509.56;;;13.90;84.36
66945;BME280;53853;51.982;5.928;2023-04-23T08:19:46;100503.66;;;13.95;80.85
66945;BME280;53853;51.982;5.928;2023-04-23T08:22:16;100496.56;;;14.02;81.51
66945;BME280;53853;51.982;5.928;2023-04-23T08:24:46;100491.31;;;14.09;82.76
66945;BME280;53853;51.982;5.928;2023-04-23T08:27:18;100491.22;;;14.17;82.09
66945;BME280;53853;51.982;5.928;2023-04-23T08:29:48;100496.69;;;14.24;83.08
66945;BME280;53853;51.982;5.928;2023-04-23T08:32:18;100500.31;;;14.31;83.46
66945;BME280;53853;51.982;5.928;2023-04-23T08:34:48;100496.25;;;14.35;79.74
66945;BME280;53853;51.982;5.928;2023-04-23T08:37:18;100499.88;;;14.42;81.03
66945;BME280;53853;51.982;5.928;2023-04-23T08:39:47;100500.16;;;14.47;82.04
66945;BME280;53853;51.982;5.928;2023-04-23T08:42:26;100504.97;;;14.52;78.16
66945;BME280;53853;51.982;5.928;2023-04-23T08:44:59;100498.22;;;14.56;75.43
66945;BME280;53853;51.982;5.928;2023-04-23T08:47:29;100495.03;;;14.61;76.86
66945;BME280;53853;51.982;5.928;2023-04-23T08:50:04;100494.16;;;14.60;75.29
66945;BME280;53853;51.982;5.928;2023-04-23T08:52:34;100492.97;;;14.63;74.32
66945;BME280;53853;51.982;5.928;2023-04-23T08:55:08;100487.06;;;14.67;72.31
66945;BME280;53853;51.982;5.928;2023-04-23T08:57:47;100491.00;;;14.72;72.48
66945;BME280;53853;51.982;5.928;2023-04-23T09:00:19;100486.50;;;14.72;71.63
66945;BME280;53853;51.982;5.928;2023-04-23T09:02:50;100482.59;;;14.75;73.59
66945;BME280;53853;51.982;5.928;2023-04-23T09:05:19;100483.28;;;14.77;71.12
66945;BME280;53853;51.982;5.928;2023-04-23T09:07:49;100485.41;;;14.81;72.34
66945;BME280;53853;51.982;5.928;2023-04-23T09:10:20;100480.94;;;14.89;75.20
66945;BME280;53853;51.982;5.928;2023-04-23T09:12:56;100481.88;;;14.96;73.10
66945;BME280;53853;51.982;5.928;2023-04-23T09:15:26;100473.31;;;15.07;73.88
66945;BME280;53853;51.982;5.928;2023-04-23T09:17:57;100475.50;;;15.18;75.02
66945;BME280;53853;51.982;5.928;2023-04-23T09:20:28;100473.34;;;15.29;77.75
66945;BME280;53853;51.982;5.928;2023-04-23T09:22:58;100474.25;;;15.36;74.61
66945;BME280;53853;51.982;5.928;2023-04-23T09:25:28;100473.50;;;15.42;71.99
66945;BME280;53853;51.982;5.928;2023-04-23T09:28:00;100477.06;;;15.49;70.87
66945;BME280;53853;51.982;5.928;2023-04-23T09:30:30;100472.59;;;15.56;70.19
66945;BME280;53853;51.982;5.928;2023-04-23T09:33:00;100473.09;;;15.67;72.07
66945;BME280;53853;51.982;5.928;2023-04-23T09:35:33;100469.84;;;15.71;69.64
66945;BME280;53853;51.982;5.928;2023-04-23T09:38:07;100459.56;;;15.75;71.13
66945;BME280;53853;51.982;5.928;2023-04-23T09:40:37;100462.53;;;15.80;71.26
66945;BME280;53853;51.982;5.928;2023-04-23T09:43:10;100454.72;;;15.85;68.37
66945;BME280;53853;51.982;5.928;2023-04-23T09:45:47;100455.59;;;15.92;69.98
66945;BME280;53853;51.982;5.928;2023-04-23T09:48:17;100456.47;;;16.00;70.30
66945;BME280;53853;51.982;5.928;2023-04-23T09:50:49;100454.03;;;16.05;69.38
66945;BME280;53853;51.982;5.928;2023-04-23T09:53:19;100456.97;;;16.10;67.31
66945;BME280;53853;51.982;5.928;2023-04-23T09:55:52;100452.28;;;16.19;67.49
66945;BME280;53853;51.982;5.928;2023-04-23T09:58:25;100451.50;;;16.25;67.38
66945;BME280;53853;51.982;5.928;2023-04-23T10:01:05;100455.88;;;16.33;62.91
66945;BME280;53853;51.982;5.928;2023-04-23T10:03:37;100446.84;;;16.40;61.12
66945;BME280;53853;51.982;5.928;2023-04-23T10:06:13;100447.66;;;16.41;60.39
66945;BME280;53853;51.982;5.928;2023-04-23T10:08:43;100453.25;;;16.46;64.19
66945;BME280;53853;51.982;5.928;2023-04-23T10:11:21;100441.72;;;16.52;69.18
66945;BME280;53853;51.982;5.928;2023-04-23T10:13:55;100444.22;;;16.60;65.90
66945;BME280;53853;51.982;5.928;2023-04-23T10:16:41;100450.69;;;16.66;63.78
66945;BME280;53853;51.982;5.928;2023-04-23T10:19:25;100448.88;;;16.73;64.22
66945;BME280;53853;51.982;5.928;2023-04-23T10:22:04;100443.91;;;16.77;60.43
66945;BME280;53853;51.982;5.928;2023-04-23T10:24:45;100441.69;;;16.87;63.16
66945;BME280;53853;51.982;5.928;2023-04-23T10:27:30;100444.66;;;16.99;63.12
66945;BME280;53853;51.982;5.928;2023-04-23T10:30:18;100434.53;;;17.08;62.27
66945;BME280;53853;51.982;5.928;2023-04-23T10:33:00;100435.59;;;17.13;63.17
66945;BME280;53853;51.982;5.928;2023-04-23T10:35:30;100433.94;;;17.19;56.96
66945;BME280;53853;51.982;5.928;2023-04-23T10:38:01;100430.03;;;17.28;58.52
66945;BME280;53853;51.982;5.928;2023-04-23T10:40:33;100431.50;;;17.37;59.00
66945;BME280;53853;51.982;5.928;2023-04-23T10:43:11;100429.00;;;17.49;61.82
66945;BME280;53853;51.982;5.928;2023-04-23T10:45:48;100430.69;;;17.57;57.78
66945;BME280;53853;51.982;5.928;2023-04-23T10:48:18;100433.81;;;17.67;59.96
66945;BME280;53853;51.982;5.928;2023-04-23T10:50:57;100425.72;;;17.81;60.14
66945;BME280;53853;51.982;5.928;2023-04-23T10:53:31;100419.09;;;17.90;61.24
66945;BME280;53853;51.982;5.928;2023-04-23T10:56:04;100416.19;;;17.98;58.02
66945;BME280;53853;51.982;5.928;2023-04-23T10:58:47;100412.84;;;18.09;58.13
66945;BME280;53853;51.982;5.928;2023-04-23T11:01:24;100405.41;;;18.12;56.70
66945;BME280;53853;51.982;5.928;2023-04-23T11:03:54;100399.81;;;18.13;55.76
66945;BME280;53853;51.982;5.928;2023-04-23T11:06:50;100399.38;;;18.16;52.65
66945;BME280;53853;51.982;5.928;2023-04-23T11:09:39;100393.97;;;18.23;54.37
66945;BME280;53853;51.982;5.928;2023-04-23T11:12:12;100397.47;;;18.37;61.32
66945;BME280;53853;51.982;5.928;2023-04-23T11:14:47;100392.84;;;18.44;54.36
66945;BME280;53853;51.982;5.928;2023-04-23T11:17:23;100379.56;;;18.56;56.01
66945;BME280;53853;51.982;5.928;2023-04-23T11:20:09;100378.44;;;18.70;56.83
66945;BME280;53853;51.982;5.928;2023-04-23T11:22:40;100378.59;;;18.82;59.40
66945;BME280;53853;51.982;5.928;2023-04-23T11:25:12;100380.63;;;18.93;53.71
66945;BME280;53853;51.982;5.928;2023-04-23T11:27:43;100376.84;;;19.01;57.08
66945;BME280;53853;51.982;5.928;2023-04-23T11:30:14;100368.91;;;19.06;54.09
66945;BME280;53853;51.982;5.928;2023-04-23T11:32:48;100365.19;;;19.07;51.90
66945;BME280;53853;51.982;5.928;2023-04-23T11:35:19;100371.41;;;19.08;54.12
66945;BME280;53853;51.982;5.928;2023-04-23T11:37:50;100361.66;;;19.07;52.65
66945;BME280;53853;51.982;5.928;2023-04-23T11:40:21;100360.38;;;19.09;55.45
66945;BME280;53853;51.982;5.928;2023-04-23T11:42:52;100359.94;;;19.12;55.86
66945;BME280;53853;51.982;5.928;2023-04-23T11:45:24;100350.38;;;19.16;51.00
66945;BME280;53853;51.982;5.928;2023-04-23T11:47:59;100351.09;;;19.30;57.13
66945;BME280;53853;51.982;5.928;2023-04-23T11:50:30;100343.31;;;19.41;52.11
66945;BME280;53853;51.982;5.928;2023-04-23T11:53:04;100338.84;;;19.53;56.58
66945;BME280;53853;51.982;5.928;2023-04-23T11:55:35;100337.69;;;19.67;54.79
66945;BME280;53853;51.982;5.928;2023-04-23T11:58:09;100331.16;;;19.75;55.08
66945;BME280;53853;51.982;5.928;2023-04-23T12:00:39;100329.25;;;19.82;50.57
66945;BME280;53853;51.982;5.928;2023-04-23T12:03:12;100324.16;;;19.93;52.46
66945;BME280;53853;51.982;5.928;2023-04-23T12:05:43;100318.75;;;19.93;49.53
66945;BME280;53853;51.982;5.928;2023-04-23T12:08:16;100313.19;;;19.87;46.46
66945;BME280;53853;51.982;5.928;2023-04-23T12:10:48;100313.50;;;19.72;46.29
66945;BME280;53853;51.982;5.928;2023-04-23T12:13:20;100306.47;;;19.71;51.86
66945;BME280;53853;51.982;5.928;2023-04-23T12:15:53;100295.22;;;19.75;51.55
66945;BME280;53853;51.982;5.928;2023-04-23T12:18:31;100291.38;;;19.82;52.70
66945;BME280;53853;51.982;5.928;2023-04-23T12:21:07;100296.44;;;19.97;56.73
66945;BME280;53853;51.982;5.928;2023-04-23T12:23:39;100288.69;;;20.01;52.77
66945;BME280;53853;51.982;5.928;2023-04-23T12:26:11;100289.91;;;20.05;54.99
66945;BME280;53853;51.982;5.928;2023-04-23T12:28:45;100285.69;;;20.09;53.96
66945;BME280;53853;51.982;5.928;2023-04-23T12:31:18;100280.50;;;20.07;54.10
66945;BME280;53853;51.982;5.928;2023-04-23T12:33:56;100283.59;;;20.11;56.36
66945;BME280;53853;51.982;5.928;2023-04-23T12:36:28;100280.03;;;20.11;52.14
66945;BME280;53853;51.982;5.928;2023-04-23T12:39:24;100277.34;;;20.11;51.67
66945;BME280;53853;51.982;5.928;2023-04-23T12:41:56;100278.78;;;20.13;49.80
66945;BME280;53853;51.982;5.928;2023-04-23T12:44:27;100273.41;;;20.25;55.21
66945;BME280;53853;51.982;5.928;2023-04-23T12:46:58;100259.50;;;20.40;57.57
66945;BME280;53853;51.982;5.928;2023-04-23T12:49:32;100256.81;;;20.52;49.77
66945;BME280;53853;51.982;5.928;2023-04-23T12:52:03;100253.06;;;20.53;45.26
66945;BME280;53853;51.982;5.928;2023-04-23T12:54:34;100250.13;;;20.54;47.10
66945;BME280;53853;51.982;5.928;2023-04-23T12:57:06;100241.69;;;20.62;52.97
66945;BME280;53853;51.982;5.928;2023-04-23T12:59:37;100233.25;;;20.71;51.11
66945;BME280;53853;51.982;5.928;2023-04-23T13:02:07;100232.31;;;20.77;49.22
66945;BME280;53853;51.982;5.928;2023-04-23T13:04:40;100231.41;;;20.83;50.75
66945;BME280;53853;51.982;5.928;2023-04-23T13:07:10;100231.16;;;20.85;51.15
66945;BME280;53853;51.982;5.928;2023-04-23T13:09:40;100219.38;;;20.79;47.58
66945;BME280;53853;51.982;5.928;2023-04-23T13:12:10;100214.88;;;20.73;47.93
66945;BME280;53853;51.982;5.928;2023-04-23T13:14:40;100217.47;;;20.68;48.25
66945;BME280;53853;51.982;5.928;2023-04-23T13:17:10;100212.69;;;20.51;44.14